sensor_id;sensor_type;location;lat;lon;timestamp;P1;durP1;ratioP1;P2;durP2;ratioP2
55224;SDS011;41091;49.400;8.684;2023-03-05T00:02:22;35.75;;;12.70;;
55224;SDS011;41091;49.400;8.684;2023-03-05T00:04:51;40.08;;;14.50;;
55224;SDS011;41091;49.400;8.684;2023-03-05T00:07:17;55.05;;;17.70;;
55224;SDS011;41091;49.400;8.684;2023-03-05T00:09:42;34.65;;;15.15;;
55224;SDS011;41091;49.400;8.684;2023-03-05T00:12:10;37.90;;;14.98;;
55224;SDS011;41091;49.400;8.684;2023-03-05T00:14:35;35.53;;;14.05;;
55224;SDS011;41091;49.400;8.684;2023-03-05T00:17:00;43.90;;;14.70;;
55224;SDS011;41091;49.400;8.684;2023-03-05T00:19:26;37.75;;;14.57;;
55224;SDS011;41091;49.400;8.684;2023-03-05T00:21:53;31.67;;;14.57;;
55224;SDS011;41091;49.400;8.684;2023-03-05T00:24:19;39.53;;;15.88;;
55224;SDS011;41091;49.400;8.684;2023-03-05T00:26:44;32.20;;;14.32;;
55224;SDS011;41091;49.400;8.684;2023-03-05T00:29:11;35.50;;;13.48;;
55224;SDS011;41091;49.400;8.684;2023-03-05T00:31:39;35.25;;;13.88;;
55224;SDS011;41091;49.400;8.684;2023-03-05T00:34:05;30.98;;;13.60;;
55224;SDS011;41091;49.400;8.684;2023-03-05T00:36:40;38.88;;;14.88;;
55224;SDS011;41091;49.400;8.684;2023-03-05T00:41:32;40.50;;;14.73;;
55224;SDS011;41091;49.400;8.684;2023-03-05T00:43:57;35.50;;;13.65;;
55224;SDS011;41091;49.400;8.684;2023-03-05T00:46:23;52.30;;;14.90;;
55224;SDS011;41091;49.400;8.684;2023-03-05T00:48:50;34.33;;;14.23;;
55224;SDS011;41091;49.400;8.684;2023-03-05T00:51:16;36.67;;;13.57;;
55224;SDS011;41091;49.400;8.684;2023-03-05T00:53:43;30.13;;;14.20;;
55224;SDS011;41091;49.400;8.684;2023-03-05T00:56:09;50.30;;;14.85;;
55224;SDS011;41091;49.400;8.684;2023-03-05T00:58:36;36.28;;;15.10;;
55224;SDS011;41091;49.400;8.684;2023-03-05T01:01:02;44.40;;;15.45;;
55224;SDS011;41091;49.400;8.684;2023-03-05T01:03:31;33.80;;;13.43;;
55224;SDS011;41091;49.400;8.684;2023-03-05T01:05:57;39.28;;;12.38;;
55224;SDS011;41091;49.400;8.684;2023-03-05T01:08:23;40.78;;;13.93;;
55224;SDS011;41091;49.400;8.684;2023-03-05T01:10:49;41.72;;;14.68;;
55224;SDS011;41091;49.400;8.684;2023-03-05T01:13:17;46.10;;;14.82;;
55224;SDS011;41091;49.400;8.684;2023-03-05T01:15:45;31.38;;;13.05;;
55224;SDS011;41091;49.400;8.684;2023-03-05T01:18:15;35.88;;;14.40;;
55224;SDS011;41091;49.400;8.684;2023-03-05T01:20:41;33.90;;;14.20;;
55224;SDS011;41091;49.400;8.684;2023-03-05T01:23:06;39.45;;;14.10;;
55224;SDS011;41091;49.400;8.684;2023-03-05T01:25:31;35.70;;;14.23;;
55224;SDS011;41091;49.400;8.684;2023-03-05T01:27:59;40.20;;;15.73;;
55224;SDS011;41091;49.400;8.684;2023-03-05T01:30:24;43.35;;;14.77;;
55224;SDS011;41091;49.400;8.684;2023-03-05T01:32:52;44.42;;;15.85;;
55224;SDS011;41091;49.400;8.684;2023-03-05T01:35:20;32.45;;;14.45;;
55224;SDS011;41091;49.400;8.684;2023-03-05T01:37:46;39.55;;;16.27;;
55224;SDS011;41091;49.400;8.684;2023-03-05T01:40:15;40.60;;;14.25;;
55224;SDS011;41091;49.400;8.684;2023-03-05T01:42:44;33.13;;;14.02;;
55224;SDS011;41091;49.400;8.684;2023-03-05T01:45:12;39.78;;;14.45;;
55224;SDS011;41091;49.400;8.684;2023-03-05T01:47:40;42.30;;;13.82;;
55224;SDS011;41091;49.400;8.684;2023-03-05T01:50:06;40.47;;;14.95;;
55224;SDS011;41091;49.400;8.684;2023-03-05T01:52:34;41.47;;;14.45;;
55224;SDS011;41091;49.400;8.684;2023-03-05T01:55:05;37.08;;;13.15;;
55224;SDS011;41091;49.400;8.684;2023-03-05T01:57:39;40.88;;;13.73;;
55224;SDS011;41091;49.400;8.684;2023-03-05T02:00:12;48.72;;;15.70;;
55224;SDS011;41091;49.400;8.684;2023-03-05T02:02:46;30.92;;;14.07;;
55224;SDS011;41091;49.400;8.684;2023-03-05T02:05:15;35.70;;;14.98;;
55224;SDS011;41091;49.400;8.684;2023-03-05T02:07:43;40.10;;;14.25;;
55224;SDS011;41091;49.400;8.684;2023-03-05T02:10:21;56.28;;;16.92;;
55224;SDS011;41091;49.400;8.684;2023-03-05T02:12:50;38.97;;;14.93;;
55224;SDS011;41091;49.400;8.684;2023-03-05T02:15:17;36.72;;;13.57;;
55224;SDS011;41091;49.400;8.684;2023-03-05T02:17:43;38.53;;;13.82;;
55224;SDS011;41091;49.400;8.684;2023-03-05T02:20:10;37.50;;;14.07;;
55224;SDS011;41091;49.400;8.684;2023-03-05T02:22:38;33.63;;;14.63;;
55224;SDS011;41091;49.400;8.684;2023-03-05T02:25:23;41.47;;;14.48;;
55224;SDS011;41091;49.400;8.684;2023-03-05T02:28:11;35.80;;;14.20;;
55224;SDS011;41091;49.400;8.684;2023-03-05T02:30:40;32.88;;;13.90;;
55224;SDS011;41091;49.400;8.684;2023-03-05T02:33:08;39.45;;;15.88;;
55224;SDS011;41091;49.400;8.684;2023-03-05T02:35:34;38.00;;;14.35;;
55224;SDS011;41091;49.400;8.684;2023-03-05T02:37:59;39.67;;;13.32;;
55224;SDS011;41091;49.400;8.684;2023-03-05T02:40:25;36.47;;;13.50;;
55224;SDS011;41091;49.400;8.684;2023-03-05T02:42:52;34.33;;;13.65;;
55224;SDS011;41091;49.400;8.684;2023-03-05T02:45:18;37.70;;;13.43;;
55224;SDS011;41091;49.400;8.684;2023-03-05T02:47:43;36.08;;;14.73;;
55224;SDS011;41091;49.400;8.684;2023-03-05T02:50:09;38.33;;;14.07;;
55224;SDS011;41091;49.400;8.684;2023-03-05T02:52:37;41.60;;;13.75;;
55224;SDS011;41091;49.400;8.684;2023-03-05T02:55:03;32.25;;;12.85;;
55224;SDS011;41091;49.400;8.684;2023-03-05T02:57:29;37.60;;;13.77;;
55224;SDS011;41091;49.400;8.684;2023-03-05T02:59:59;31.90;;;13.68;;
55224;SDS011;41091;49.400;8.684;2023-03-05T03:02:24;42.00;;;13.43;;
55224;SDS011;41091;49.400;8.684;2023-03-05T03:04:52;33.78;;;13.90;;
55224;SDS011;41091;49.400;8.684;2023-03-05T03:07:19;32.92;;;13.55;;
55224;SDS011;41091;49.400;8.684;2023-03-05T03:09:45;34.83;;;13.30;;
55224;SDS011;41091;49.400;8.684;2023-03-05T03:12:10;39.45;;;13.60;;
55224;SDS011;41091;49.400;8.684;2023-03-05T03:14:39;41.88;;;16.02;;
55224;SDS011;41091;49.400;8.684;2023-03-05T03:17:07;39.05;;;13.13;;
55224;SDS011;41091;49.400;8.684;2023-03-05T03:19:34;37.75;;;14.57;;
55224;SDS011;41091;49.400;8.684;2023-03-05T03:21:59;35.97;;;14.55;;
55224;SDS011;41091;49.400;8.684;2023-03-05T03:24:33;38.38;;;15.05;;
55224;SDS011;41091;49.400;8.684;2023-03-05T03:27:02;40.75;;;14.40;;
55224;SDS011;41091;49.400;8.684;2023-03-05T03:29:27;35.20;;;13.85;;
55224;SDS011;41091;49.400;8.684;2023-03-05T03:31:58;38.10;;;15.30;;
55224;SDS011;41091;49.400;8.684;2023-03-05T03:34:25;42.60;;;14.07;;
55224;SDS011;41091;49.400;8.684;2023-03-05T03:36:51;32.97;;;13.50;;
55224;SDS011;41091;49.400;8.684;2023-03-05T03:39:19;25.10;;;12.13;;
55224;SDS011;41091;49.400;8.684;2023-03-05T03:41:52;34.65;;;12.48;;
55224;SDS011;41091;49.400;8.684;2023-03-05T03:44:18;34.13;;;12.45;;
55224;SDS011;41091;49.400;8.684;2023-03-05T03:46:44;31.70;;;12.90;;
55224;SDS011;41091;49.400;8.684;2023-03-05T03:49:13;36.80;;;13.35;;
55224;SDS011;41091;49.400;8.684;2023-03-05T03:51:40;31.97;;;13.77;;
55224;SDS011;41091;49.400;8.684;2023-03-05T03:54:05;49.92;;;13.52;;
55224;SDS011;41091;49.400;8.684;2023-03-05T03:56:30;36.03;;;14.38;;
55224;SDS011;41091;49.400;8.684;2023-03-05T03:58:56;32.38;;;13.15;;
55224;SDS011;41091;49.400;8.684;2023-03-05T04:01:23;34.15;;;12.68;;
55224;SDS011;41091;49.400;8.684;2023-03-05T04:03:51;30.20;;;13.07;;
55224;SDS011;41091;49.400;8.684;2023-03-05T04:06:16;38.67;;;13.38;;
55224;SDS011;41091;49.400;8.684;2023-03-05T04:08:41;36.80;;;14.60;;
55224;SDS011;41091;49.400;8.684;2023-03-05T04:11:07;36.28;;;13.48;;
55224;SDS011;41091;49.400;8.684;2023-03-05T04:13:33;39.03;;;14.30;;
55224;SDS011;41091;49.400;8.684;2023-03-05T04:15:58;43.13;;;16.25;;
55224;SDS011;41091;49.400;8.684;2023-03-05T04:18:23;38.30;;;14.43;;
55224;SDS011;41091;49.400;8.684;2023-03-05T04:20:51;40.90;;;13.32;;
55224;SDS011;41091;49.400;8.684;2023-03-05T04:23:16;36.90;;;14.20;;
55224;SDS011;41091;49.400;8.684;2023-03-05T04:25:44;30.65;;;13.30;;
55224;SDS011;41091;49.400;8.684;2023-03-05T04:28:10;36.97;;;13.25;;
55224;SDS011;41091;49.400;8.684;2023-03-05T04:30:35;35.15;;;13.70;;
55224;SDS011;41091;49.400;8.684;2023-03-05T04:33:06;34.72;;;12.88;;
55224;SDS011;41091;49.400;8.684;2023-03-05T04:35:33;34.88;;;12.70;;
55224;SDS011;41091;49.400;8.684;2023-03-05T04:37:59;35.75;;;13.05;;
55224;SDS011;41091;49.400;8.684;2023-03-05T04:40:27;41.03;;;13.02;;
55224;SDS011;41091;49.400;8.684;2023-03-05T04:42:52;35.58;;;14.07;;
55224;SDS011;41091;49.400;8.684;2023-03-05T04:45:17;40.45;;;13.02;;
55224;SDS011;41091;49.400;8.684;2023-03-05T04:47:45;36.67;;;14.73;;
55224;SDS011;41091;49.400;8.684;2023-03-05T04:50:15;38.25;;;12.43;;
55224;SDS011;41091;49.400;8.684;2023-03-05T04:52:42;33.90;;;12.55;;
55224;SDS011;41091;49.400;8.684;2023-03-05T04:55:11;31.75;;;12.88;;
55224;SDS011;41091;49.400;8.684;2023-03-05T04:57:37;41.05;;;14.75;;
55224;SDS011;41091;49.400;8.684;2023-03-05T05:00:03;30.67;;;12.70;;
55224;SDS011;41091;49.400;8.684;2023-03-05T05:02:33;28.70;;;12.93;;
55224;SDS011;41091;49.400;8.684;2023-03-05T05:04:58;32.08;;;13.27;;
55224;SDS011;41091;49.400;8.684;2023-03-05T05:07:24;36.25;;;14.07;;
55224;SDS011;41091;49.400;8.684;2023-03-05T05:09:49;41.03;;;14.82;;
55224;SDS011;41091;49.400;8.684;2023-03-05T05:12:15;40.60;;;13.80;;
55224;SDS011;41091;49.400;8.684;2023-03-05T05:14:40;38.28;;;14.00;;
55224;SDS011;41091;49.400;8.684;2023-03-05T05:17:05;34.67;;;13.90;;
55224;SDS011;41091;49.400;8.684;2023-03-05T05:19:31;27.17;;;13.10;;
55224;SDS011;41091;49.400;8.684;2023-03-05T05:21:59;36.10;;;13.20;;
55224;SDS011;41091;49.400;8.684;2023-03-05T05:24:28;31.88;;;11.38;;
55224;SDS011;41091;49.400;8.684;2023-03-05T05:26:55;31.27;;;13.25;;
55224;SDS011;41091;49.400;8.684;2023-03-05T05:29:25;41.80;;;13.70;;
55224;SDS011;41091;49.400;8.684;2023-03-05T05:31:51;34.75;;;12.27;;
55224;SDS011;41091;49.400;8.684;2023-03-05T05:34:18;45.97;;;12.95;;
55224;SDS011;41091;49.400;8.684;2023-03-05T05:36:43;34.22;;;13.90;;
55224;SDS011;41091;49.400;8.684;2023-03-05T05:39:13;33.92;;;12.88;;
55224;SDS011;41091;49.400;8.684;2023-03-05T05:41:41;36.83;;;14.05;;
55224;SDS011;41091;49.400;8.684;2023-03-05T05:44:06;36.95;;;14.38;;
55224;SDS011;41091;49.400;8.684;2023-03-05T05:46:31;29.48;;;13.75;;
55224;SDS011;41091;49.400;8.684;2023-03-05T05:48:57;38.40;;;13.48;;
55224;SDS011;41091;49.400;8.684;2023-03-05T05:51:22;30.88;;;13.48;;
55224;SDS011;41091;49.400;8.684;2023-03-05T05:53:48;34.75;;;12.45;;
55224;SDS011;41091;49.400;8.684;2023-03-05T05:56:14;39.28;;;14.52;;
55224;SDS011;41091;49.400;8.684;2023-03-05T05:58:41;37.47;;;12.27;;
55224;SDS011;41091;49.400;8.684;2023-03-05T06:01:26;36.88;;;12.80;;
55224;SDS011;41091;49.400;8.684;2023-03-05T06:03:53;34.13;;;14.68;;
55224;SDS011;41091;49.400;8.684;2023-03-05T06:06:20;37.28;;;14.63;;
55224;SDS011;41091;49.400;8.684;2023-03-05T06:08:49;28.57;;;12.10;;
55224;SDS011;41091;49.400;8.684;2023-03-05T06:11:14;33.45;;;13.38;;
55224;SDS011;41091;49.400;8.684;2023-03-05T06:13:43;29.52;;;13.18;;
55224;SDS011;41091;49.400;8.684;2023-03-05T06:16:14;41.65;;;13.88;;
55224;SDS011;41091;49.400;8.684;2023-03-05T06:18:45;32.25;;;13.45;;
55224;SDS011;41091;49.400;8.684;2023-03-05T06:21:12;35.03;;;14.35;;
55224;SDS011;41091;49.400;8.684;2023-03-05T06:23:38;36.15;;;13.18;;
55224;SDS011;41091;49.400;8.684;2023-03-05T06:26:04;32.08;;;14.32;;
55224;SDS011;41091;49.400;8.684;2023-03-05T06:28:31;31.50;;;14.02;;
55224;SDS011;41091;49.400;8.684;2023-03-05T06:31:04;38.20;;;14.43;;
55224;SDS011;41091;49.400;8.684;2023-03-05T06:33:31;36.47;;;14.00;;
55224;SDS011;41091;49.400;8.684;2023-03-05T06:35:57;34.25;;;12.60;;
55224;SDS011;41091;49.400;8.684;2023-03-05T06:38:25;39.65;;;13.73;;
55224;SDS011;41091;49.400;8.684;2023-03-05T06:40:52;43.50;;;13.10;;
55224;SDS011;41091;49.400;8.684;2023-03-05T06:43:18;39.30;;;14.88;;
55224;SDS011;41091;49.400;8.684;2023-03-05T06:45:43;41.53;;;14.27;;
55224;SDS011;41091;49.400;8.684;2023-03-05T06:48:11;48.30;;;14.93;;
55224;SDS011;41091;49.400;8.684;2023-03-05T06:50:39;38.38;;;14.05;;
55224;SDS011;41091;49.400;8.684;2023-03-05T06:53:07;33.53;;;14.85;;
55224;SDS011;41091;49.400;8.684;2023-03-05T06:55:35;32.80;;;13.35;;
55224;SDS011;41091;49.400;8.684;2023-03-05T06:58:04;26.38;;;13.68;;
55224;SDS011;41091;49.400;8.684;2023-03-05T07:00:29;33.95;;;14.35;;
55224;SDS011;41091;49.400;8.684;2023-03-05T07:02:55;37.03;;;14.48;;
55224;SDS011;41091;49.400;8.684;2023-03-05T07:05:22;33.78;;;14.05;;
55224;SDS011;41091;49.400;8.684;2023-03-05T07:07:50;44.40;;;14.30;;
55224;SDS011;41091;49.400;8.684;2023-03-05T07:10:18;33.25;;;14.15;;
55224;SDS011;41091;49.400;8.684;2023-03-05T07:12:45;37.92;;;14.13;;
55224;SDS011;41091;49.400;8.684;2023-03-05T07:15:11;35.13;;;14.38;;
55224;SDS011;41091;49.400;8.684;2023-03-05T07:17:36;49.28;;;17.45;;
55224;SDS011;41091;49.400;8.684;2023-03-05T07:20:02;43.03;;;14.30;;
55224;SDS011;41091;49.400;8.684;2023-03-05T07:22:28;42.50;;;14.65;;
55224;SDS011;41091;49.400;8.684;2023-03-05T07:24:54;45.58;;;15.27;;
55224;SDS011;41091;49.400;8.684;2023-03-05T07:27:24;35.95;;;14.82;;
55224;SDS011;41091;49.400;8.684;2023-03-05T07:29:52;40.88;;;13.82;;
55224;SDS011;41091;49.400;8.684;2023-03-05T07:32:19;40.63;;;14.63;;
55224;SDS011;41091;49.400;8.684;2023-03-05T07:34:45;39.75;;;15.43;;
55224;SDS011;41091;49.400;8.684;2023-03-05T07:37:12;43.95;;;15.73;;
55224;SDS011;41091;49.400;8.684;2023-03-05T07:39:38;43.58;;;16.20;;
55224;SDS011;41091;49.400;8.684;2023-03-05T07:42:03;42.03;;;17.52;;
55224;SDS011;41091;49.400;8.684;2023-03-05T07:44:29;62.50;;;18.85;;
55224;SDS011;41091;49.400;8.684;2023-03-05T07:46:55;50.63;;;20.83;;
55224;SDS011;41091;49.400;8.684;2023-03-05T07:49:20;49.60;;;18.42;;
55224;SDS011;41091;49.400;8.684;2023-03-05T07:51:47;38.30;;;16.38;;
55224;SDS011;41091;49.400;8.684;2023-03-05T07:54:15;38.40;;;15.57;;
55224;SDS011;41091;49.400;8.684;2023-03-05T07:56:40;46.17;;;16.58;;
55224;SDS011;41091;49.400;8.684;2023-03-05T07:59:07;45.10;;;15.60;;
55224;SDS011;41091;49.400;8.684;2023-03-05T08:01:35;39.60;;;14.85;;
55224;SDS011;41091;49.400;8.684;2023-03-05T08:04:01;37.33;;;14.68;;
55224;SDS011;41091;49.400;8.684;2023-03-05T08:06:27;37.97;;;15.77;;
55224;SDS011;41091;49.400;8.684;2023-03-05T08:08:53;57.35;;;16.05;;
55224;SDS011;41091;49.400;8.684;2023-03-05T08:11:18;36.03;;;16.00;;
55224;SDS011;41091;49.400;8.684;2023-03-05T08:13:44;31.35;;;13.95;;
55224;SDS011;41091;49.400;8.684;2023-03-05T08:16:10;42.15;;;15.52;;
55224;SDS011;41091;49.400;8.684;2023-03-05T08:18:39;45.60;;;15.77;;
55224;SDS011;41091;49.400;8.684;2023-03-05T08:21:05;41.08;;;14.77;;
55224;SDS011;41091;49.400;8.684;2023-03-05T08:23:30;36.15;;;14.13;;
55224;SDS011;41091;49.400;8.684;2023-03-05T08:25:56;52.30;;;15.98;;
55224;SDS011;41091;49.400;8.684;2023-03-05T08:28:21;32.05;;;14.98;;
55224;SDS011;41091;49.400;8.684;2023-03-05T08:30:51;32.08;;;14.05;;
55224;SDS011;41091;49.400;8.684;2023-03-05T08:33:16;31.65;;;13.65;;
55224;SDS011;41091;49.400;8.684;2023-03-05T08:35:42;33.55;;;14.85;;
55224;SDS011;41091;49.400;8.684;2023-03-05T08:38:12;39.15;;;14.63;;
55224;SDS011;41091;49.400;8.684;2023-03-05T08:40:42;39.58;;;14.48;;
55224;SDS011;41091;49.400;8.684;2023-03-05T08:43:07;33.00;;;13.93;;
55224;SDS011;41091;49.400;8.684;2023-03-05T08:45:35;37.83;;;14.80;;
55224;SDS011;41091;49.400;8.684;2023-03-05T08:48:05;33.83;;;13.38;;
55224;SDS011;41091;49.400;8.684;2023-03-05T08:50:34;26.60;;;13.25;;
55224;SDS011;41091;49.400;8.684;2023-03-05T08:53:00;31.65;;;12.45;;
55224;SDS011;41091;49.400;8.684;2023-03-05T08:55:26;38.63;;;14.02;;
55224;SDS011;41091;49.400;8.684;2023-03-05T08:57:51;32.53;;;14.57;;
55224;SDS011;41091;49.400;8.684;2023-03-05T09:00:17;39.90;;;15.55;;
55224;SDS011;41091;49.400;8.684;2023-03-05T09:02:45;33.78;;;14.50;;
55224;SDS011;41091;49.400;8.684;2023-03-05T09:05:10;38.90;;;12.93;;
55224;SDS011;41091;49.400;8.684;2023-03-05T09:07:35;26.75;;;13.10;;
55224;SDS011;41091;49.400;8.684;2023-03-05T09:10:02;36.13;;;13.90;;
55224;SDS011;41091;49.400;8.684;2023-03-05T09:12:34;28.88;;;12.65;;
55224;SDS011;41091;49.400;8.684;2023-03-05T09:14:59;31.67;;;13.45;;
55224;SDS011;41091;49.400;8.684;2023-03-05T09:17:27;28.52;;;13.00;;
55224;SDS011;41091;49.400;8.684;2023-03-05T09:19:52;21.27;;;10.45;;
55224;SDS011;41091;49.400;8.684;2023-03-05T09:22:18;28.13;;;11.75;;
55224;SDS011;41091;49.400;8.684;2023-03-05T09:24:45;22.27;;;10.57;;
55224;SDS011;41091;49.400;8.684;2023-03-05T09:27:10;18.65;;;11.48;;
55224;SDS011;41091;49.400;8.684;2023-03-05T09:29:36;19.70;;;9.75;;
55224;SDS011;41091;49.400;8.684;2023-03-05T09:32:03;23.73;;;11.32;;
55224;SDS011;41091;49.400;8.684;2023-03-05T09:34:31;24.50;;;11.43;;
55224;SDS011;41091;49.400;8.684;2023-03-05T09:36:58;21.15;;;11.27;;
55224;SDS011;41091;49.400;8.684;2023-03-05T09:39:24;21.48;;;10.70;;
55224;SDS011;41091;49.400;8.684;2023-03-05T09:49:30;21.20;;;9.77;;
55224;SDS011;41091;49.400;8.684;2023-03-05T09:52:00;19.42;;;8.55;;
55224;SDS011;41091;49.400;8.684;2023-03-05T09:54:40;18.67;;;8.57;;
55224;SDS011;41091;49.400;8.684;2023-03-05T09:57:11;16.35;;;8.40;;
55224;SDS011;41091;49.400;8.684;2023-03-05T10:02:17;18.02;;;7.88;;
55224;SDS011;41091;49.400;8.684;2023-03-05T10:05:03;21.30;;;9.73;;
55224;SDS011;41091;49.400;8.684;2023-03-05T10:07:43;17.65;;;8.05;;
55224;SDS011;41091;49.400;8.684;2023-03-05T10:10:17;12.88;;;7.07;;
55224;SDS011;41091;49.400;8.684;2023-03-05T10:12:50;18.70;;;6.30;;
55224;SDS011;41091;49.400;8.684;2023-03-05T10:18:18;16.25;;;7.63;;
55224;SDS011;41091;49.400;8.684;2023-03-05T10:20:40;14.30;;;8.02;;
55224;SDS011;41091;49.400;8.684;2023-03-05T10:29:09;19.15;;;7.72;;
55224;SDS011;41091;49.400;8.684;2023-03-05T10:32:20;15.43;;;7.82;;
55224;SDS011;41091;49.400;8.684;2023-03-05T10:37:12;13.93;;;6.82;;
55224;SDS011;41091;49.400;8.684;2023-03-05T10:40:10;11.10;;;7.45;;
55224;SDS011;41091;49.400;8.684;2023-03-05T10:42:50;12.25;;;7.13;;
55224;SDS011;41091;49.400;8.684;2023-03-05T10:45:19;15.32;;;7.30;;
55224;SDS011;41091;49.400;8.684;2023-03-05T10:47:51;14.23;;;7.10;;
55224;SDS011;41091;49.400;8.684;2023-03-05T10:50:20;13.80;;;7.13;;
55224;SDS011;41091;49.400;8.684;2023-03-05T10:55:39;22.88;;;8.52;;
55224;SDS011;41091;49.400;8.684;2023-03-05T10:58:12;12.00;;;7.15;;
55224;SDS011;41091;49.400;8.684;2023-03-05T11:08:55;12.98;;;7.15;;
55224;SDS011;41091;49.400;8.684;2023-03-05T11:11:21;19.58;;;7.45;;
55224;SDS011;41091;49.400;8.684;2023-03-05T11:13:55;16.58;;;6.38;;
55224;SDS011;41091;49.400;8.684;2023-03-05T11:16:30;11.35;;;5.55;;
55224;SDS011;41091;49.400;8.684;2023-03-05T11:19:11;9.13;;;5.22;;
55224;SDS011;41091;49.400;8.684;2023-03-05T11:21:39;10.82;;;5.15;;
55224;SDS011;41091;49.400;8.684;2023-03-05T11:24:13;14.43;;;5.63;;
55224;SDS011;41091;49.400;8.684;2023-03-05T11:26:48;10.40;;;6.15;;
55224;SDS011;41091;49.400;8.684;2023-03-05T11:29:21;17.77;;;5.60;;
55224;SDS011;41091;49.400;8.684;2023-03-05T11:31:50;11.38;;;6.38;;
55224;SDS011;41091;49.400;8.684;2023-03-05T11:36:41;12.98;;;4.60;;
55224;SDS011;41091;49.400;8.684;2023-03-05T11:39:30;8.40;;;4.95;;
55224;SDS011;41091;49.400;8.684;2023-03-05T11:42:06;12.30;;;5.10;;
55224;SDS011;41091;49.400;8.684;2023-03-05T11:49:59;8.77;;;4.65;;
55224;SDS011;41091;49.400;8.684;2023-03-05T11:52:33;5.47;;;4.18;;
55224;SDS011;41091;49.400;8.684;2023-03-05T11:57:44;10.57;;;4.82;;
55224;SDS011;41091;49.400;8.684;2023-03-05T12:00:46;5.95;;;3.78;;
55224;SDS011;41091;49.400;8.684;2023-03-05T12:03:10;11.68;;;5.25;;
55224;SDS011;41091;49.400;8.684;2023-03-05T12:05:39;8.88;;;4.45;;
55224;SDS011;41091;49.400;8.684;2023-03-05T12:08:08;16.33;;;4.80;;
55224;SDS011;41091;49.400;8.684;2023-03-05T12:10:38;12.68;;;4.53;;
55224;SDS011;41091;49.400;8.684;2023-03-05T12:18:42;10.65;;;5.38;;
55224;SDS011;41091;49.400;8.684;2023-03-05T12:24:01;6.53;;;4.40;;
55224;SDS011;41091;49.400;8.684;2023-03-05T12:34:46;9.30;;;4.28;;
55224;SDS011;41091;49.400;8.684;2023-03-05T12:39:48;9.57;;;4.93;;
55224;SDS011;41091;49.400;8.684;2023-03-05T12:42:39;8.05;;;4.72;;
55224;SDS011;41091;49.400;8.684;2023-03-05T12:45:27;12.48;;;4.55;;
55224;SDS011;41091;49.400;8.684;2023-03-05T12:52:53;7.40;;;4.25;;
55224;SDS011;41091;49.400;8.684;2023-03-05T12:55:21;7.53;;;4.95;;
55224;SDS011;41091;49.400;8.684;2023-03-05T12:57:48;10.05;;;4.78;;
55224;SDS011;41091;49.400;8.684;2023-03-05T13:00:44;7.95;;;3.42;;
55224;SDS011;41091;49.400;8.684;2023-03-05T13:03:13;5.82;;;3.58;;
55224;SDS011;41091;49.400;8.684;2023-03-05T13:05:52;8.27;;;4.05;;
55224;SDS011;41091;49.400;8.684;2023-03-05T13:08:22;11.57;;;4.50;;
55224;SDS011;41091;49.400;8.684;2023-03-05T13:10:53;8.85;;;4.45;;
55224;SDS011;41091;49.400;8.684;2023-03-05T13:13:21;6.93;;;3.83;;
55224;SDS011;41091;49.400;8.684;2023-03-05T13:15:50;8.85;;;4.25;;
55224;SDS011;41091;49.400;8.684;2023-03-05T13:18:20;6.10;;;3.38;;
55224;SDS011;41091;49.400;8.684;2023-03-05T13:20:47;5.93;;;4.10;;
55224;SDS011;41091;49.400;8.684;2023-03-05T13:28:22;5.97;;;3.67;;
55224;SDS011;41091;49.400;8.684;2023-03-05T13:30:54;11.60;;;4.55;;
55224;SDS011;41091;49.400;8.684;2023-03-05T13:33:23;19.10;;;4.28;;
55224;SDS011;41091;49.400;8.684;2023-03-05T13:35:51;7.28;;;3.85;;
55224;SDS011;41091;49.400;8.684;2023-03-05T13:38:20;6.93;;;3.20;;
55224;SDS011;41091;49.400;8.684;2023-03-05T13:43:57;6.03;;;3.30;;
55224;SDS011;41091;49.400;8.684;2023-03-05T13:51:22;7.47;;;4.45;;
55224;SDS011;41091;49.400;8.684;2023-03-05T13:53:54;13.40;;;3.83;;
55224;SDS011;41091;49.400;8.684;2023-03-05T13:56:20;7.80;;;3.90;;
55224;SDS011;41091;49.400;8.684;2023-03-05T13:58:46;7.35;;;4.38;;
55224;SDS011;41091;49.400;8.684;2023-03-05T14:01:26;11.50;;;4.13;;
55224;SDS011;41091;49.400;8.684;2023-03-05T14:03:52;7.03;;;3.95;;
55224;SDS011;41091;49.400;8.684;2023-03-05T14:06:24;8.73;;;3.42;;
55224;SDS011;41091;49.400;8.684;2023-03-05T14:08:53;12.02;;;3.78;;
55224;SDS011;41091;49.400;8.684;2023-03-05T14:11:21;7.30;;;3.78;;
55224;SDS011;41091;49.400;8.684;2023-03-05T14:13:47;6.40;;;4.10;;
55224;SDS011;41091;49.400;8.684;2023-03-05T14:16:22;7.32;;;3.67;;
55224;SDS011;41091;49.400;8.684;2023-03-05T14:18:54;6.43;;;3.13;;
55224;SDS011;41091;49.400;8.684;2023-03-05T14:21:40;5.63;;;3.28;;
55224;SDS011;41091;49.400;8.684;2023-03-05T14:24:11;5.78;;;2.80;;
55224;SDS011;41091;49.400;8.684;2023-03-05T14:26:54;4.30;;;2.97;;
55224;SDS011;41091;49.400;8.684;2023-03-05T14:29:21;7.50;;;3.53;;
55224;SDS011;41091;49.400;8.684;2023-03-05T14:34:37;9.10;;;3.40;;
55224;SDS011;41091;49.400;8.684;2023-03-05T14:37:13;4.22;;;2.88;;
55224;SDS011;41091;49.400;8.684;2023-03-05T14:42:24;3.80;;;2.47;;
55224;SDS011;41091;49.400;8.684;2023-03-05T14:45:09;4.72;;;2.72;;
55224;SDS011;41091;49.400;8.684;2023-03-05T14:47:45;4.60;;;2.35;;
55224;SDS011;41091;49.400;8.684;2023-03-05T14:50:14;5.70;;;2.15;;
55224;SDS011;41091;49.400;8.684;2023-03-05T14:52:40;5.17;;;3.53;;
55224;SDS011;41091;49.400;8.684;2023-03-05T14:55:05;3.13;;;2.38;;
55224;SDS011;41091;49.400;8.684;2023-03-05T14:57:34;5.22;;;2.83;;
55224;SDS011;41091;49.400;8.684;2023-03-05T15:00:09;10.93;;;3.22;;
55224;SDS011;41091;49.400;8.684;2023-03-05T15:02:42;4.53;;;2.85;;
55224;SDS011;41091;49.400;8.684;2023-03-05T15:05:07;4.72;;;2.88;;
55224;SDS011;41091;49.400;8.684;2023-03-05T15:07:32;5.38;;;2.75;;
55224;SDS011;41091;49.400;8.684;2023-03-05T15:10:00;6.50;;;3.40;;
55224;SDS011;41091;49.400;8.684;2023-03-05T15:12:28;4.68;;;2.83;;
55224;SDS011;41091;49.400;8.684;2023-03-05T15:14:55;4.78;;;3.20;;
55224;SDS011;41091;49.400;8.684;2023-03-05T15:17:23;4.38;;;2.38;;
55224;SDS011;41091;49.400;8.684;2023-03-05T15:19:53;4.20;;;2.88;;
55224;SDS011;41091;49.400;8.684;2023-03-05T15:22:21;5.15;;;2.83;;
55224;SDS011;41091;49.400;8.684;2023-03-05T15:24:49;3.33;;;3.00;;
55224;SDS011;41091;49.400;8.684;2023-03-05T15:27:16;4.97;;;3.05;;
55224;SDS011;41091;49.400;8.684;2023-03-05T15:29:42;6.43;;;2.88;;
55224;SDS011;41091;49.400;8.684;2023-03-05T15:32:09;3.30;;;2.70;;
55224;SDS011;41091;49.400;8.684;2023-03-05T15:34:37;6.03;;;3.05;;
55224;SDS011;41091;49.400;8.684;2023-03-05T15:37:04;5.05;;;2.95;;
55224;SDS011;41091;49.400;8.684;2023-03-05T15:39:30;2.65;;;2.45;;
55224;SDS011;41091;49.400;8.684;2023-03-05T15:41:55;6.50;;;3.63;;
55224;SDS011;41091;49.400;8.684;2023-03-05T15:44:24;3.95;;;3.15;;
55224;SDS011;41091;49.400;8.684;2023-03-05T15:46:53;3.00;;;2.70;;
55224;SDS011;41091;49.400;8.684;2023-03-05T15:49:21;3.03;;;2.15;;
55224;SDS011;41091;49.400;8.684;2023-03-05T15:51:48;4.03;;;2.88;;
55224;SDS011;41091;49.400;8.684;2023-03-05T15:54:14;4.78;;;2.30;;
55224;SDS011;41091;49.400;8.684;2023-03-05T15:56:41;6.32;;;3.70;;
55224;SDS011;41091;49.400;8.684;2023-03-05T15:59:09;5.28;;;3.13;;
55224;SDS011;41091;49.400;8.684;2023-03-05T16:01:38;4.38;;;2.67;;
55224;SDS011;41091;49.400;8.684;2023-03-05T16:04:05;8.20;;;3.08;;
55224;SDS011;41091;49.400;8.684;2023-03-05T16:06:33;5.50;;;2.72;;